Time;durP1;ratioP1;P1;durP2;ratioP2;P2;SDS_P1;SDS_P2;PMS_P1;PMS_P2;Temp;Humidity;BMP_temperature;BMP_pressure;BME280_temperature;BME280_humidity;BME280_pressure;Samples;Min_cycle;Max_cycle;Signal;HPM_P1;HPM_P2
2023/01/18 00:02:24;;;;;;;6.93;4.20;;;;;;;;;;5023088;28;20057;-67
2023/01/18 00:04:49;;;;;;;5.95;3.92;;;;;;;;;;5036092;28;20045;-67
2023/01/18 00:07:15;;;;;;;6.10;4.00;;;;;;;;;;5022753;28;20057;-68
2023/01/18 00:09:40;;;;;;;7.55;4.30;;;;;;;;;;5021978;28;20084;-67
2023/01/18 00:12:06;;;;;;;5.82;4.53;;;;;;;;;;5038081;28;20096;-67
2023/01/18 00:14:31;;;;;;;5.55;4.22;;;;;;;;;;5022144;28;20037;-67
2023/01/18 00:16:56;;;;;;;6.82;4.07;;;;;;;;;;5017889;28;20056;-67
2023/01/18 00:19:22;;;;;;;6.65;3.80;;;;;;;;;;5021945;28;20410;-67
2023/01/18 00:21:54;;;;;;;7.80;4.15;;;;;;;;;;5022473;28;20148;-68
2023/01/18 00:24:21;;;;;;;5.78;3.78;;;;;;;;;;5022786;28;20106;-67
2023/01/18 00:26:47;;;;;;;8.07;3.97;;;;;;;;;;5018085;28;20055;-67
2023/01/18 00:29:13;;;;;;;7.35;4.15;;;;;;;;;;5021550;28;20049;-67
2023/01/18 00:31:39;;;;;;;5.53;3.90;;;;;;;;;;5022373;28;20140;-67
2023/01/18 00:34:05;;;;;;;6.15;3.65;;;;;;;;;;5022040;28;20165;-67
2023/01/18 00:36:32;;;;;;;5.80;3.70;;;;;;;;;;5037103;28;20057;-67
2023/01/18 00:38:58;;;;;;;4.70;3.63;;;;;;;;;;5020798;28;20132;-67
2023/01/18 00:41:23;;;;;;;6.28;3.92;;;;;;;;;;5022405;28;20057;-67
2023/01/18 00:43:50;;;;;;;8.93;4.07;;;;;;;;;;5022292;28;20053;-67
2023/01/18 00:46:21;;;;;;;5.82;4.28;;;;;;;;;;5021830;28;20080;-67
2023/01/18 00:48:47;;;;;;;3.92;3.53;;;;;;;;;;5019751;28;20053;-68
2023/01/18 00:51:15;;;;;;;5.50;3.78;;;;;;;;;;5021840;28;20068;-68
2023/01/18 00:53:42;;;;;;;6.15;3.90;;;;;;;;;;5022235;28;20079;-66
2023/01/18 00:56:11;;;;;;;7.38;4.18;;;;;;;;;;5021844;28;20490;-67
2023/01/18 00:58:37;;;;;;;11.07;6.95;;;;;;;;;;5019940;28;20052;-67
2023/01/18 01:01:04;;;;;;;10.80;7.10;;;;;;;;;;5035739;28;20038;-69
2023/01/18 01:06:42;;;;;;;8.68;6.22;;;;;;;;;;5020262;28;20507;-68
2023/01/18 01:07:01;;;;;;;8.10;5.72;;;;;;;;;;5019234;28;20049;-68
2023/01/18 01:09:01;;;;;;;11.77;6.78;;;;;;;;;;5019147;28;20088;-69
2023/01/18 01:11:27;;;;;;;7.75;5.82;;;;;;;;;;5018429;28;20124;-68
2023/01/18 01:27:32;;;;;;;6.38;4.82;;;;;;;;;;5018360;28;20054;-68
2023/01/18 01:29:57;;;;;;;7.30;5.13;;;;;;;;;;5020752;28;20410;-68
2023/01/18 01:32:23;;;;;;;8.75;4.57;;;;;;;;;;5021124;28;20238;-68
2023/01/18 01:34:49;;;;;;;6.03;4.25;;;;;;;;;;5018381;28;20053;-67
2023/01/18 01:37:14;;;;;;;6.93;4.57;;;;;;;;;;5020870;28;20057;-67
2023/01/18 01:39:40;;;;;;;7.78;4.35;;;;;;;;;;5021451;28;20049;-67
2023/01/18 01:42:05;;;;;;;5.72;4.47;;;;;;;;;;5021193;28;20084;-68
2023/01/18 01:44:33;;;;;;;6.75;4.25;;;;;;;;;;5019736;28;20049;-69
2023/01/18 01:47:03;;;;;;;7.53;5.03;;;;;;;;;;5019524;28;20452;-68
2023/01/18 01:49:32;;;;;;;5.35;4.20;;;;;;;;;;5020499;28;20053;-67
2023/01/18 01:52:09;;;;;;;7.53;4.63;;;;;;;;;;5021201;28;20057;-67
2023/01/18 01:54:43;;;;;;;5.22;3.65;;;;;;;;;;5020537;28;20171;-68
2023/01/18 01:57:09;;;;;;;5.10;4.15;;;;;;;;;;5049890;28;20061;-66
2023/01/18 01:59:40;;;;;;;5.85;3.63;;;;;;;;;;5035271;28;20643;-67
2023/01/18 02:02:06;;;;;;;5.95;4.07;;;;;;;;;;5020211;28;20060;-67
2023/01/18 02:04:32;;;;;;;6.88;4.43;;;;;;;;;;5020837;28;20042;-68
2023/01/18 02:06:57;;;;;;;9.43;4.50;;;;;;;;;;5020283;28;20513;-68
2023/01/18 02:09:23;;;;;;;11.18;4.25;;;;;;;;;;5020200;28;20136;-68
2023/01/18 02:11:54;;;;;;;5.93;4.10;;;;;;;;;;5020597;28;20056;-66
2023/01/18 02:14:23;;;;;;;5.88;4.20;;;;;;;;;;5020940;28;20080;-68
2023/01/18 02:17:11;;;;;;;7.03;3.92;;;;;;;;;;5020090;28;20053;-67
2023/01/18 02:20:18;;;;;;;6.25;4.18;;;;;;;;;;5019119;28;20396;-69
2023/01/18 02:22:46;;;;;;;4.68;3.78;;;;;;;;;;5035300;28;20049;-65
2023/01/18 02:25:39;;;;;;;5.60;4.10;;;;;;;;;;5020239;28;20486;-65
2023/01/18 02:28:18;;;;;;;5.30;3.67;;;;;;;;;;5020001;28;20507;-66
2023/01/18 02:30:49;;;;;;;5.18;4.00;;;;;;;;;;5018697;28;20056;-64
2023/01/18 02:33:29;;;;;;;7.25;4.40;;;;;;;;;;5020032;28;20068;-65
2023/01/18 02:35:56;;;;;;;7.07;4.25;;;;;;;;;;5014673;28;20049;-63
2023/01/18 02:38:25;;;;;;;3.90;3.17;;;;;;;;;;5019568;28;20053;-66
2023/01/18 02:40:59;;;;;;;7.07;3.53;;;;;;;;;;5018494;28;20045;-68
2023/01/18 02:46:29;;;;;;;3.85;2.75;;;;;;;;;;5011078;28;20053;-67
2023/01/18 02:48:56;;;;;;;4.40;2.08;;;;;;;;;;5034221;28;20042;-67
2023/01/18 02:51:23;;;;;;;1.38;1.15;;;;;;;;;;5019627;28;20138;-65
2023/01/18 02:53:48;;;;;;;1.67;1.58;;;;;;;;;;5019913;28;20042;-67
2023/01/18 02:56:33;;;;;;;0.90;0.90;;;;;;;;;;5019878;28;20156;-66
2023/01/18 02:59:03;;;;;;;1.65;1.20;;;;;;;;;;5018683;28;20112;-67
2023/01/18 03:01:40;;;;;;;1.15;1.05;;;;;;;;;;5019870;28;20128;-67
2023/01/18 03:04:27;;;;;;;1.10;1.08;;;;;;;;;;5018536;28;20418;-65
2023/01/18 03:07:08;;;;;;;1.27;1.17;;;;;;;;;;5019211;28;20059;-63
2023/01/18 03:09:33;;;;;;;1.20;1.10;;;;;;;;;;5019266;28;20045;-67
2023/01/18 03:12:16;;;;;;;0.95;0.88;;;;;;;;;;5019661;28;20786;-66
2023/01/18 03:14:53;;;;;;;1.15;0.90;;;;;;;;;;5018540;28;20107;-65
2023/01/18 03:17:32;;;;;;;2.35;1.85;;;;;;;;;;5019882;28;20140;-66
2023/01/18 03:20:08;;;;;;;1.60;1.50;;;;;;;;;;5019266;28;20060;-65
2023/01/18 03:25:28;;;;;;;1.23;0.98;;;;;;;;;;5041341;28;20148;-68
2023/01/18 03:33:47;;;;;;;1.02;0.98;;;;;;;;;;5019819;28;20406;-66
2023/01/18 03:36:33;;;;;;;1.05;0.95;;;;;;;;;;5018866;28;20053;-68
2023/01/18 03:39:06;;;;;;;1.25;1.10;;;;;;;;;;5018515;28;20069;-67
2023/01/18 03:41:37;;;;;;;0.75;0.75;;;;;;;;;;5019988;28;20099;-67
2023/01/18 03:44:09;;;;;;;1.13;1.05;;;;;;;;;;5021076;28;20049;-67
2023/01/18 03:46:35;;;;;;;1.33;0.77;;;;;;;;;;5022466;28;20057;-69
2023/01/18 03:49:01;;;;;;;1.10;1.00;;;;;;;;;;5021995;28;20123;-68
2023/01/18 03:51:29;;;;;;;0.65;0.63;;;;;;;;;;5023187;28;20486;-67
2023/01/18 03:54:05;;;;;;;0.98;0.73;;;;;;;;;;5022950;28;20053;-66
2023/01/18 03:57:03;;;;;;;0.60;0.60;;;;;;;;;;5023499;28;20406;-68
2023/01/18 03:59:34;;;;;;;0.70;0.70;;;;;;;;;;5048999;28;20575;-68
2023/01/18 04:02:00;;;;;;;0.60;0.60;;;;;;;;;;5022847;28;20045;-68
2023/01/18 04:04:25;;;;;;;0.80;0.63;;;;;;;;;;5023019;28;20041;-68
2023/01/18 04:06:50;;;;;;;0.55;0.55;;;;;;;;;;5021940;28;20056;-70
2023/01/18 04:09:16;;;;;;;0.80;0.80;;;;;;;;;;5021415;28;20414;-68
2023/01/18 04:11:41;;;;;;;0.55;0.55;;;;;;;;;;5021294;28;20135;-68
2023/01/18 04:14:07;;;;;;;1.50;0.60;;;;;;;;;;5022606;28;20049;-68
2023/01/18 04:16:32;;;;;;;0.57;0.57;;;;;;;;;;5023109;28;20049;-67
2023/01/18 04:18:57;;;;;;;4.05;0.68;;;;;;;;;;5036357;28;20037;-67
2023/01/18 04:21:23;;;;;;;0.55;0.55;;;;;;;;;;5021852;28;20140;-67
2023/01/18 04:23:48;;;;;;;0.43;0.43;;;;;;;;;;5022278;28;20095;-67
2023/01/18 04:26:15;;;;;;;0.88;0.85;;;;;;;;;;5034343;28;20114;-66
2023/01/18 04:28:41;;;;;;;0.50;0.50;;;;;;;;;;5021411;28;20068;-67
2023/01/18 04:31:07;;;;;;;1.00;0.90;;;;;;;;;;5036519;28;20043;-67
2023/01/18 04:33:33;;;;;;;0.88;0.77;;;;;;;;;;5037364;28;20457;-67
2023/01/18 04:36:00;;;;;;;1.15;1.02;;;;;;;;;;5020990;28;20621;-67
2023/01/18 04:38:25;;;;;;;0.73;0.73;;;;;;;;;;5021219;28;20573;-65
2023/01/18 04:40:50;;;;;;;0.98;0.98;;;;;;;;;;5021774;28;21070;-67
2023/01/18 04:43:16;;;;;;;3.05;0.85;;;;;;;;;;5021105;28;20055;-65
2023/01/18 04:45:41;;;;;;;1.10;1.00;;;;;;;;;;5020601;28;20050;-67
2023/01/18 04:48:07;;;;;;;1.55;0.95;;;;;;;;;;5021558;28;20041;-67
2023/01/18 04:50:32;;;;;;;0.80;0.70;;;;;;;;;;5021671;28;20041;-69
2023/01/18 04:52:58;;;;;;;2.15;0.75;;;;;;;;;;5020372;28;21353;-67
2023/01/18 04:55:23;;;;;;;0.80;0.80;;;;;;;;;;5022038;28;20075;-68
2023/01/18 04:57:56;;;;;;;1.58;0.93;;;;;;;;;;5021993;28;20045;-69
2023/01/18 05:00:21;;;;;;;1.85;1.20;;;;;;;;;;5021342;28;20041;-67
2023/01/18 05:02:47;;;;;;;1.25;1.05;;;;;;;;;;5021507;28;20045;-69
2023/01/18 05:05:12;;;;;;;1.52;1.02;;;;;;;;;;5035624;28;20045;-68
2023/01/18 05:07:38;;;;;;;1.25;1.15;;;;;;;;;;5021910;28;20048;-68
2023/01/18 05:10:04;;;;;;;1.35;1.13;;;;;;;;;;5019113;28;20080;-68
2023/01/18 05:12:29;;;;;;;1.40;1.30;;;;;;;;;;5021486;28;20564;-67
2023/01/18 05:14:55;;;;;;;1.50;1.38;;;;;;;;;;5020076;28;20516;-68
2023/01/18 05:17:26;;;;;;;0.68;0.68;;;;;;;;;;5018451;28;20084;-68
2023/01/18 05:19:55;;;;;;;2.78;1.50;;;;;;;;;;5020287;28;20633;-67
2023/01/18 05:22:21;;;;;;;1.35;1.25;;;;;;;;;;5020917;28;20077;-67
2023/01/18 05:24:47;;;;;;;1.30;1.15;;;;;;;;;;5035412;28;20050;-68
2023/01/18 05:27:12;;;;;;;1.48;1.38;;;;;;;;;;5019656;28;20107;-67
2023/01/18 05:29:38;;;;;;;1.63;1.25;;;;;;;;;;5020419;28;20072;-68
2023/01/18 05:32:05;;;;;;;1.55;1.40;;;;;;;;;;5020748;28;20041;-68
2023/01/18 05:34:31;;;;;;;1.20;1.10;;;;;;;;;;5019925;28;20068;-69
2023/01/18 05:36:56;;;;;;;1.38;1.27;;;;;;;;;;5017483;28;20081;-68
2023/01/18 05:39:22;;;;;;;4.55;1.13;;;;;;;;;;5019258;28;20536;-67
2023/01/18 05:41:47;;;;;;;1.40;1.30;;;;;;;;;;5036285;28;20118;-67
2023/01/18 05:44:13;;;;;;;1.73;1.63;;;;;;;;;;5018588;28;20167;-69
2023/01/18 05:46:38;;;;;;;2.03;1.60;;;;;;;;;;5019901;28;20052;-67
2023/01/18 05:49:04;;;;;;;1.63;1.40;;;;;;;;;;5016980;28;20050;-67
2023/01/18 05:51:30;;;;;;;2.13;1.63;;;;;;;;;;5020346;28;20391;-67
2023/01/18 05:53:55;;;;;;;1.60;1.50;;;;;;;;;;5019645;28;20456;-68
2023/01/18 05:56:21;;;;;;;3.08;1.23;;;;;;;;;;5018072;28;20689;-68
2023/01/18 05:58:46;;;;;;;1.90;1.50;;;;;;;;;;5032690;28;20099;-69
2023/01/18 06:01:12;;;;;;;1.33;1.23;;;;;;;;;;5020002;28;20562;-69
2023/01/18 06:03:39;;;;;;;1.58;1.25;;;;;;;;;;5020404;28;20041;-69
2023/01/18 06:06:05;;;;;;;1.33;1.23;;;;;;;;;;5019530;28;20052;-70
2023/01/18 06:08:32;;;;;;;2.20;1.58;;;;;;;;;;5019635;28;20049;-68
2023/01/18 06:10:58;;;;;;;2.05;1.67;;;;;;;;;;5016385;28;20506;-69
2023/01/18 06:13:29;;;;;;;3.03;1.60;;;;;;;;;;5018050;28;20045;-69
2023/01/18 06:15:56;;;;;;;2.10;1.50;;;;;;;;;;5019093;28;20103;-68
2023/01/18 06:18:24;;;;;;;1.85;1.48;;;;;;;;;;5030659;28;20925;-69
2023/01/18 06:20:53;;;;;;;4.25;1.80;;;;;;;;;;5012976;28;20037;-68
2023/01/18 06:23:19;;;;;;;2.45;1.60;;;;;;;;;;5019004;28;20871;-68
2023/01/18 06:25:44;;;;;;;2.85;1.85;;;;;;;;;;5020130;28;21140;-68
2023/01/18 06:28:09;;;;;;;2.63;1.83;;;;;;;;;;5017977;28;21247;-68
2023/01/18 06:30:35;;;;;;;2.05;1.85;;;;;;;;;;5018865;28;20046;-69
2023/01/18 06:33:05;;;;;;;2.25;2.00;;;;;;;;;;5017017;28;20053;-68
2023/01/18 06:35:34;;;;;;;3.90;2.08;;;;;;;;;;5019596;28;20464;-69
2023/01/18 06:38:00;;;;;;;3.97;2.42;;;;;;;;;;5018929;28;20584;-69
2023/01/18 06:40:25;;;;;;;4.28;2.30;;;;;;;;;;5019207;28;20042;-68
2023/01/18 06:42:51;;;;;;;3.50;2.35;;;;;;;;;;5017954;28;20049;-68
2023/01/18 06:45:18;;;;;;;5.28;2.35;;;;;;;;;;5019220;28;20050;-68
2023/01/18 06:47:44;;;;;;;5.22;2.25;;;;;;;;;;5019199;28;20053;-69
2023/01/18 06:50:10;;;;;;;2.85;2.42;;;;;;;;;;5019694;28;20045;-69
2023/01/18 06:52:35;;;;;;;3.85;2.08;;;;;;;;;;5019815;28;20056;-68
2023/01/18 06:55:01;;;;;;;6.22;2.42;;;;;;;;;;5018647;28;20053;-68
2023/01/18 06:57:26;;;;;;;4.43;2.60;;;;;;;;;;5020052;28;20042;-69
2023/01/18 06:59:52;;;;;;;5.18;2.95;;;;;;;;;;5008020;28;20507;-69
2023/01/18 07:02:19;;;;;;;3.67;2.47;;;;;;;;;;5017081;28;20049;-70
2023/01/18 07:04:44;;;;;;;3.70;2.40;;;;;;;;;;5017772;28;20050;-71
2023/01/18 07:07:11;;;;;;;3.83;2.13;;;;;;;;;;5019675;28;20099;-71
2023/01/18 07:09:37;;;;;;;3.13;2.20;;;;;;;;;;5017850;28;20690;-71
2023/01/18 07:12:03;;;;;;;3.33;2.20;;;;;;;;;;5019579;28;20044;-70
2023/01/18 07:14:29;;;;;;;2.58;2.22;;;;;;;;;;5019778;28;20509;-71
2023/01/18 07:16:54;;;;;;;6.32;4.30;;;;;;;;;;5033810;28;20041;-71
2023/01/18 07:19:19;;;;;;;5.53;3.65;;;;;;;;;;5020791;28;20045;-71
2023/01/18 07:21:45;;;;;;;6.10;3.85;;;;;;;;;;5023048;28;20045;-72
2023/01/18 07:24:10;;;;;;;6.68;4.75;;;;;;;;;;5023282;28;20107;-71
2023/01/18 07:26:36;;;;;;;5.53;3.50;;;;;;;;;;5021391;28;20041;-70
2023/01/18 07:29:02;;;;;;;3.85;2.97;;;;;;;;;;5022210;28;20150;-72
2023/01/18 07:31:27;;;;;;;3.60;2.55;;;;;;;;;;5037884;28;20413;-71
2023/01/18 07:33:52;;;;;;;4.55;2.40;;;;;;;;;;5020414;28;20049;-69
2023/01/18 07:36:19;;;;;;;4.13;2.30;;;;;;;;;;5022996;28;20052;-71
2023/01/18 07:38:46;;;;;;;2.78;2.30;;;;;;;;;;5021210;28;20049;-69
2023/01/18 07:41:16;;;;;;;8.32;2.30;;;;;;;;;;5021641;28;20060;-70
2023/01/18 07:43:43;;;;;;;2.53;2.33;;;;;;;;;;5022899;28;20052;-69
2023/01/18 07:46:15;;;;;;;4.93;2.70;;;;;;;;;;5023311;28;20064;-70
2023/01/18 07:48:41;;;;;;;3.80;2.40;;;;;;;;;;5036674;28;20052;-69
2023/01/18 07:51:08;;;;;;;4.57;2.33;;;;;;;;;;5021505;28;20038;-70
2023/01/18 07:53:35;;;;;;;3.35;2.50;;;;;;;;;;5022982;28;20045;-70
2023/01/18 07:56:03;;;;;;;3.92;2.60;;;;;;;;;;5022952;28;20056;-71
2023/01/18 07:58:28;;;;;;;4.40;2.50;;;;;;;;;;5023190;28;20041;-70
2023/01/18 08:00:54;;;;;;;3.75;2.75;;;;;;;;;;5034306;28;20044;-69
2023/01/18 08:03:20;;;;;;;5.35;2.88;;;;;;;;;;5021859;28;20048;-71
2023/01/18 08:05:46;;;;;;;5.47;2.72;;;;;;;;;;5023427;28;20076;-71
2023/01/18 08:08:16;;;;;;;3.55;2.72;;;;;;;;;;5023749;28;20498;-69
2023/01/18 08:10:42;;;;;;;4.57;2.92;;;;;;;;;;5034772;28;20257;-69
2023/01/18 08:13:09;;;;;;;4.63;2.90;;;;;;;;;;5035280;28;20158;-68
2023/01/18 08:15:36;;;;;;;3.03;2.72;;;;;;;;;;5022626;28;20087;-69
2023/01/18 08:18:06;;;;;;;3.63;2.58;;;;;;;;;;5022102;28;20049;-70
2023/01/18 08:20:31;;;;;;;4.28;3.00;;;;;;;;;;5019811;28;20482;-69
2023/01/18 08:22:58;;;;;;;4.70;2.45;;;;;;;;;;5020546;28;20140;-70
2023/01/18 08:25:29;;;;;;;2.75;2.33;;;;;;;;;;5019962;28;20080;-71
2023/01/18 08:28:02;;;;;;;4.00;2.42;;;;;;;;;;5022301;28;20132;-72
2023/01/18 08:30:32;;;;;;;2.88;2.10;;;;;;;;;;5019163;28;20127;-70
2023/01/18 08:32:59;;;;;;;3.47;2.28;;;;;;;;;;5020392;28;20514;-70
2023/01/18 08:35:27;;;;;;;5.85;2.38;;;;;;;;;;5022648;28;20111;-71
2023/01/18 08:37:53;;;;;;;2.80;2.28;;;;;;;;;;5021679;28;20089;-69
2023/01/18 08:40:20;;;;;;;4.38;2.50;;;;;;;;;;5021460;28;20168;-69
2023/01/18 08:42:46;;;;;;;3.08;2.50;;;;;;;;;;5021965;28;20045;-70
2023/01/18 08:45:13;;;;;;;3.67;2.90;;;;;;;;;;5035423;28;20064;-69
2023/01/18 08:47:39;;;;;;;6.05;3.75;;;;;;;;;;5021367;28;20045;-69
2023/01/18 08:50:05;;;;;;;5.18;3.38;;;;;;;;;;5021149;28;20064;-69
2023/01/18 08:52:33;;;;;;;3.55;2.53;;;;;;;;;;5037782;28;20490;-69
2023/01/18 08:54:59;;;;;;;5.65;2.92;;;;;;;;;;5020187;28;20048;-70
2023/01/18 08:57:26;;;;;;;4.60;2.72;;;;;;;;;;5022125;28;20037;-70
2023/01/18 08:59:53;;;;;;;3.83;2.72;;;;;;;;;;5021195;28;20444;-68
2023/01/18 09:02:19;;;;;;;3.88;2.28;;;;;;;;;;5021864;28;20099;-69
2023/01/18 09:04:47;;;;;;;5.80;2.92;;;;;;;;;;5021594;28;20049;-71
2023/01/18 09:07:13;;;;;;;4.43;2.63;;;;;;;;;;5035744;28;20159;-70
2023/01/18 09:09:39;;;;;;;4.63;2.60;;;;;;;;;;5021651;28;20050;-70
2023/01/18 09:12:04;;;;;;;4.57;2.90;;;;;;;;;;5021825;28;20103;-69
2023/01/18 09:14:30;;;;;;;4.35;2.83;;;;;;;;;;5021596;28;20103;-70
2023/01/18 09:16:55;;;;;;;4.60;2.65;;;;;;;;;;5019401;28;20160;-71
2023/01/18 09:19:21;;;;;;;5.10;2.45;;;;;;;;;;5020255;28;20486;-70
2023/01/18 09:21:48;;;;;;;3.83;2.53;;;;;;;;;;5021231;28;20406;-71
2023/01/18 09:24:14;;;;;;;3.72;2.38;;;;;;;;;;5022353;28;20045;-70
2023/01/18 09:26:39;;;;;;;5.25;2.70;;;;;;;;;;5020384;28;20547;-73
2023/01/18 09:29:05;;;;;;;8.63;3.15;;;;;;;;;;5019445;28;20160;-70
2023/01/18 09:31:31;;;;;;;5.65;3.25;;;;;;;;;;5020460;28;20095;-71
2023/01/18 09:33:57;;;;;;;8.13;3.38;;;;;;;;;;5021300;28;20102;-72
2023/01/18 09:36:25;;;;;;;7.63;3.17;;;;;;;;;;5019942;28;20095;-71
2023/01/18 09:38:51;;;;;;;4.28;3.08;;;;;;;;;;5018537;28;20045;-71
2023/01/18 09:41:48;;;;;;;4.70;2.45;;;;;;;;;;5019616;28;20099;-70
2023/01/18 09:44:39;;;;;;;9.18;2.00;;;;;;;;;;5021335;28;20057;-70
2023/01/18 09:47:20;;;;;;;2.22;1.60;;;;;;;;;;5020937;28;20490;-70
2023/01/18 09:49:55;;;;;;;3.13;1.30;;;;;;;;;;5019145;28;20045;-70
2023/01/18 09:52:38;;;;;;;2.05;1.05;;;;;;;;;;5020749;28;20691;-70
2023/01/18 09:55:21;;;;;;;1.73;1.45;;;;;;;;;;5020147;28;20046;-70
2023/01/18 09:58:27;;;;;;;1.48;0.90;;;;;;;;;;5021066;28;20045;-70
2023/01/18 10:00:59;;;;;;;2.10;0.82;;;;;;;;;;5017920;28;20045;-70
2023/01/18 10:03:36;;;;;;;0.70;0.70;;;;;;;;;;5011975;28;20099;-69
2023/01/18 10:06:09;;;;;;;1.00;0.60;;;;;;;;;;5020334;28;20123;-71
2023/01/18 10:09:03;;;;;;;0.63;0.63;;;;;;;;;;5035956;28;20077;-69
2023/01/18 10:11:46;;;;;;;1.15;0.73;;;;;;;;;;5042129;28;20061;-70
2023/01/18 10:14:28;;;;;;;1.90;0.70;;;;;;;;;;5035193;28;20076;-71
2023/01/18 10:16:59;;;;;;;0.52;0.52;;;;;;;;;;5035725;28;20064;-72
2023/01/18 10:19:28;;;;;;;1.10;0.52;;;;;;;;;;5019854;28;20604;-70
2023/01/18 10:22:12;;;;;;;0.60;0.60;;;;;;;;;;5019261;28;20084;-70
2023/01/18 10:24:56;;;;;;;0.90;0.50;;;;;;;;;;5034871;28;20037;-71
2023/01/18 10:27:46;;;;;;;0.40;0.40;;;;;;;;;;5044516;28;20052;-72
2023/01/18 10:30:24;;;;;;;0.40;0.40;;;;;;;;;;5019543;28;20387;-71
2023/01/18 10:32:59;;;;;;;5.63;0.60;;;;;;;;;;5019570;28;20037;-71
2023/01/18 10:35:34;;;;;;;0.60;0.60;;;;;;;;;;5020093;28;20160;-71
2023/01/18 10:38:11;;;;;;;0.60;0.60;;;;;;;;;;5021718;28;20573;-71
2023/01/18 10:40:38;;;;;;;0.60;0.60;;;;;;;;;;5019787;28;20037;-70
2023/01/18 10:43:09;;;;;;;1.33;0.88;;;;;;;;;;5034584;28;20069;-71
2023/01/18 10:45:35;;;;;;;0.60;0.60;;;;;;;;;;5019471;28;20057;-73
2023/01/18 10:48:12;;;;;;;1.33;0.60;;;;;;;;;;5020576;28;20045;-71
2023/01/18 10:50:43;;;;;;;2.00;0.77;;;;;;;;;;5019296;28;20045;-70
2023/01/18 10:53:36;;;;;;;0.57;0.57;;;;;;;;;;5021959;28;20049;-71
2023/01/18 10:56:03;;;;;;;0.60;0.60;;;;;;;;;;5020761;28;20045;-70
2023/01/18 10:58:31;;;;;;;0.75;0.68;;;;;;;;;;5024257;28;20045;-70
2023/01/18 11:00:59;;;;;;;0.63;0.63;;;;;;;;;;5022303;28;20180;-70
2023/01/18 11:03:26;;;;;;;0.68;0.65;;;;;;;;;;5023735;28;20053;-72
2023/01/18 11:06:03;;;;;;;1.08;0.90;;;;;;;;;;5023540;28;20064;-72
2023/01/18 11:08:32;;;;;;;0.52;0.52;;;;;;;;;;5023064;28;20049;-70
2023/01/18 11:11:13;;;;;;;1.40;0.73;;;;;;;;;;5020933;28;20156;-71
2023/01/18 11:13:38;;;;;;;4.82;1.55;;;;;;;;;;5039178;28;20095;-70
2023/01/18 11:16:05;;;;;;;1.13;0.98;;;;;;;;;;5023645;28;20049;-71
2023/01/18 11:18:31;;;;;;;0.70;0.70;;;;;;;;;;5022770;28;20041;-71
2023/01/18 11:20:56;;;;;;;1.00;0.80;;;;;;;;;;5021847;28;20049;-71
2023/01/18 11:23:24;;;;;;;0.80;0.80;;;;;;;;;;5019549;28;20091;-69
2023/01/18 11:25:57;;;;;;;1.70;0.68;;;;;;;;;;5033771;28;20053;-69
2023/01/18 11:28:36;;;;;;;0.80;0.80;;;;;;;;;;5022775;28;20045;-70
2023/01/18 11:31:07;;;;;;;0.80;0.80;;;;;;;;;;5021289;28;20049;-71
2023/01/18 11:33:34;;;;;;;0.50;0.50;;;;;;;;;;5038891;28;20137;-71
2023/01/18 11:36:01;;;;;;;0.95;0.85;;;;;;;;;;5023366;28;20052;-69
2023/01/18 11:38:32;;;;;;;1.30;0.90;;;;;;;;;;5038893;28;20041;-70
2023/01/18 11:41:15;;;;;;;0.73;0.73;;;;;;;;;;5020486;28;20525;-71
2023/01/18 11:44:25;;;;;;;2.05;0.95;;;;;;;;;;5021583;28;20041;-71
2023/01/18 11:46:54;;;;;;;0.95;0.95;;;;;;;;;;5011675;28;20379;-72
2023/01/18 11:49:41;;;;;;;0.70;0.70;;;;;;;;;;5020830;28;20132;-72
2023/01/18 11:52:22;;;;;;;0.60;0.60;;;;;;;;;;5037236;28;20084;-72
2023/01/18 11:54:52;;;;;;;0.57;0.57;;;;;;;;;;5037568;28;20061;-72
2023/01/18 11:57:18;;;;;;;0.60;0.60;;;;;;;;;;5022937;28;20049;-72
2023/01/18 11:59:45;;;;;;;1.05;0.90;;;;;;;;;;5036790;28;20049;-72
2023/01/18 12:02:11;;;;;;;0.70;0.70;;;;;;;;;;5021986;28;20136;-72
2023/01/18 12:05:14;;;;;;;1.67;1.08;;;;;;;;;;5022245;28;20124;-72
2023/01/18 12:07:42;;;;;;;0.70;0.70;;;;;;;;;;5045226;28;20053;-71
2023/01/18 12:10:19;;;;;;;0.98;0.93;;;;;;;;;;5036239;28;20052;-71
2023/01/18 12:12:54;;;;;;;0.52;0.52;;;;;;;;;;5021036;28;20140;-72
2023/01/18 12:15:19;;;;;;;0.65;0.65;;;;;;;;;;5037669;28;20152;-72
2023/01/18 12:18:00;;;;;;;2.20;0.60;;;;;;;;;;5022161;28;20140;-71
2023/01/18 12:20:33;;;;;;;0.70;0.70;;;;;;;;;;5036161;28;20402;-71
2023/01/18 12:23:01;;;;;;;0.40;0.40;;;;;;;;;;5022235;28;20045;-71
2023/01/18 12:25:42;;;;;;;0.55;0.55;;;;;;;;;;5036908;28;20041;-71
2023/01/18 12:28:14;;;;;;;0.38;0.38;;;;;;;;;;5022332;28;20053;-72
2023/01/18 12:30:52;;;;;;;1.13;0.77;;;;;;;;;;5034033;28;20561;-71
2023/01/18 12:33:40;;;;;;;0.77;0.77;;;;;;;;;;5043740;28;20049;-71
2023/01/18 12:36:38;;;;;;;1.95;0.73;;;;;;;;;;5006865;28;20060;-72
2023/01/18 12:39:35;;;;;;;0.68;0.68;;;;;;;;;;5036469;28;20053;-71
2023/01/18 12:42:04;;;;;;;1.30;1.00;;;;;;;;;;5016361;28;20060;-71
2023/01/18 12:44:55;;;;;;;1.10;1.00;;;;;;;;;;5020484;28;20518;-71
2023/01/18 12:47:33;;;;;;;1.00;1.00;;;;;;;;;;5014567;28;20045;-72
2023/01/18 12:50:04;;;;;;;1.00;1.00;;;;;;;;;;5019191;28;20051;-71
2023/01/18 12:52:37;;;;;;;1.98;1.52;;;;;;;;;;5020374;28;20052;-73
2023/01/18 12:55:05;;;;;;;5.35;1.13;;;;;;;;;;5018415;28;20072;-70
2023/01/18 12:57:32;;;;;;;2.17;1.27;;;;;;;;;;5020311;28;20441;-71
2023/01/18 13:00:04;;;;;;;1.63;1.20;;;;;;;;;;5019494;28;20627;-72
2023/01/18 13:02:44;;;;;;;1.27;1.00;;;;;;;;;;5021673;28;20455;-71
2023/01/18 13:05:54;;;;;;;0.70;0.70;;;;;;;;;;5021139;28;20498;-71
2023/01/18 13:08:28;;;;;;;1.17;1.05;;;;;;;;;;4977611;28;20060;-72
2023/01/18 13:11:04;;;;;;;1.95;1.10;;;;;;;;;;5011111;28;20087;-70
2023/01/18 13:13:30;;;;;;;0.90;0.90;;;;;;;;;;5019332;28;20041;-74
2023/01/18 13:16:12;;;;;;;0.80;0.80;;;;;;;;;;5018307;28;20111;-70
2023/01/18 13:19:12;;;;;;;1.13;1.08;;;;;;;;;;5020297;28;20044;-70
2023/01/18 13:21:59;;;;;;;1.20;1.10;;;;;;;;;;5007943;28;20056;-71
2023/01/18 13:24:46;;;;;;;0.88;0.88;;;;;;;;;;5020715;28;20041;-73
2023/01/18 13:27:14;;;;;;;1.10;1.00;;;;;;;;;;5017359;28;20490;-72
2023/01/18 13:29:42;;;;;;;1.10;1.00;;;;;;;;;;5017705;28;20529;-71
2023/01/18 13:32:22;;;;;;;0.90;0.90;;;;;;;;;;5034589;28;20119;-71
2023/01/18 13:34:56;;;;;;;3.72;1.10;;;;;;;;;;5034301;28;20107;-72
2023/01/18 13:37:52;;;;;;;1.05;1.05;;;;;;;;;;5020513;28;20146;-72
2023/01/18 13:40:26;;;;;;;1.02;0.80;;;;;;;;;;5006709;28;20053;-69
2023/01/18 13:42:51;;;;;;;1.30;1.20;;;;;;;;;;5020283;28;20041;-72
2023/01/18 13:45:21;;;;;;;1.55;1.45;;;;;;;;;;5020719;28;20041;-73
2023/01/18 13:47:57;;;;;;;1.90;1.70;;;;;;;;;;5036341;28;20056;-72
2023/01/18 13:50:33;;;;;;;6.53;2.42;;;;;;;;;;5019583;28;20041;-71
2023/01/18 13:53:13;;;;;;;1.63;1.50;;;;;;;;;;5019144;28;20045;-72
2023/01/18 13:55:44;;;;;;;1.77;1.55;;;;;;;;;;5019752;28;20042;-72
2023/01/18 13:58:25;;;;;;;1.08;1.08;;;;;;;;;;5015553;28;20073;-71
2023/01/18 14:00:51;;;;;;;2.22;2.00;;;;;;;;;;5032328;28;20041;-72
2023/01/18 14:03:25;;;;;;;1.45;1.35;;;;;;;;;;5017483;28;20053;-72
2023/01/18 14:05:52;;;;;;;1.38;1.30;;;;;;;;;;5018512;28;20107;-72
2023/01/18 14:08:25;;;;;;;1.23;1.17;;;;;;;;;;5018927;28;20049;-73
2023/01/18 14:10:53;;;;;;;1.23;1.15;;;;;;;;;;5016052;28;20049;-74
2023/01/18 14:13:45;;;;;;;1.40;1.30;;;;;;;;;;5017169;28;26825;-73
2023/01/18 14:16:32;;;;;;;3.08;2.10;;;;;;;;;;5018047;28;20055;-73
2023/01/18 14:19:12;;;;;;;3.42;1.63;;;;;;;;;;5018217;28;20609;-72
2023/01/18 14:21:54;;;;;;;14.00;1.85;;;;;;;;;;5018409;28;20055;-73
2023/01/18 14:24:22;;;;;;;2.75;2.47;;;;;;;;;;5012794;28;20053;-73
2023/01/18 14:26:51;;;;;;;3.92;2.35;;;;;;;;;;5017496;28;20053;-72
2023/01/18 14:29:32;;;;;;;4.25;2.45;;;;;;;;;;5016738;28;20045;-72
2023/01/18 14:31:59;;;;;;;2.53;2.33;;;;;;;;;;5019180;28;20395;-72
2023/01/18 14:34:38;;;;;;;3.00;2.30;;;;;;;;;;5019943;28;20520;-74
2023/01/18 14:37:25;;;;;;;2.20;2.10;;;;;;;;;;5018813;28;20061;-72
2023/01/18 14:40:15;;;;;;;4.18;2.15;;;;;;;;;;5018172;28;20041;-72
2023/01/18 14:42:50;;;;;;;5.47;3.38;;;;;;;;;;5020493;28;20494;-74
2023/01/18 14:45:25;;;;;;;3.90;2.88;;;;;;;;;;5046575;28;20394;-72
2023/01/18 14:47:52;;;;;;;2.05;1.92;;;;;;;;;;5034029;28;20046;-71
2023/01/18 14:50:20;;;;;;;5.75;3.67;;;;;;;;;;5016239;28;20062;-71
2023/01/18 14:52:48;;;;;;;3.45;3.05;;;;;;;;;;5034568;28;20033;-72
2023/01/18 14:55:31;;;;;;;5.15;3.28;;;;;;;;;;5018510;28;20069;-72
2023/01/18 14:58:10;;;;;;;3.60;2.15;;;;;;;;;;5018464;28;20041;-74
2023/01/18 15:00:52;;;;;;;8.25;3.85;;;;;;;;;;5018240;28;20095;-73
2023/01/18 15:03:28;;;;;;;4.27;2.60;;;;;;;;;;5046820;28;20128;-74
2023/01/18 15:06:20;;;;;;;3.13;2.83;;;;;;;;;;5019660;28;20294;-72
2023/01/18 15:08:46;;;;;;;3.78;3.20;;;;;;;;;;5018022;28;20045;-73
2023/01/18 15:11:12;;;;;;;6.38;3.53;;;;;;;;;;5018450;28;20160;-72
2023/01/18 15:13:46;;;;;;;7.28;3.72;;;;;;;;;;5018637;28;20048;-73
2023/01/18 15:16:15;;;;;;;6.75;3.05;;;;;;;;;;5019552;28;20087;-75
2023/01/18 15:18:41;;;;;;;10.25;3.17;;;;;;;;;;5019796;28;20949;-74
2023/01/18 15:21:15;;;;;;;3.58;2.60;;;;;;;;;;5017266;28;20049;-72
2023/01/18 15:23:42;;;;;;;3.05;2.78;;;;;;;;;;5019844;28;20478;-71
2023/01/18 15:26:08;;;;;;;2.50;2.30;;;;;;;;;;5035151;28;20056;-73
2023/01/18 15:28:33;;;;;;;2.55;2.35;;;;;;;;;;5019348;28;20037;-70
2023/01/18 15:31:03;;;;;;;2.25;2.05;;;;;;;;;;5017155;28;20112;-71
2023/01/18 15:33:30;;;;;;;1.90;1.80;;;;;;;;;;5019596;28;20054;-71